Weather at Newark Liberty International Airport

Public forecast

Using degrees Fahrenheit for public forecast. Weather courtesy of forecast.io.

Current aviation weather report (METAR) for Newark Liberty International Airport

Retrieved 2022/05/23 06:51 UTC (25 minutes ago):

KEWR 230651Z 34012KT 10SM FEW030 BKN120 BKN200 20/12 A3007 RMK AO2 SLP182 T02000117

Aviation forecast (TAF) for Newark Liberty International Airport

Retrieved 2022/05/23 06:22 UTC (54 minutes ago):

TAF KEWR 230520Z 2306/2412 34014G20KT P6SM SCT050 BKN120 FM231400 35010KT P6SM BKN200 FM240000 01006KT P6SM BKN150 FM240600 04005KT P6SM BKN150